createdAt,value
2018-09-15T00:00:18.621Z,94.50
2018-09-15T00:02:57.716Z,94.60
2018-09-15T00:05:30.986Z,94.60
2018-09-15T00:08:03.147Z,95.00
2018-09-15T00:10:33.685Z,94.60
2018-09-15T00:13:07.806Z,94.60
2018-09-15T00:15:44.657Z,95.40
2018-09-15T00:18:18.729Z,95.40
2018-09-15T00:20:50.410Z,95.00
2018-09-15T00:23:23.156Z,95.60
2018-09-15T00:26:01.361Z,95.50
2018-09-15T00:28:33.520Z,95.50
2018-09-15T00:31:10.467Z,95.80
2018-09-15T00:33:50.989Z,95.80
2018-09-15T00:36:32.341Z,96.20
2018-09-15T00:39:06.478Z,96.40
2018-09-15T00:41:41.337Z,96.70
2018-09-15T00:44:12.515Z,96.90
2018-09-15T00:46:45.485Z,96.60
2018-09-15T00:49:15.757Z,96.60
2018-09-15T00:51:48.505Z,96.50
2018-09-15T00:54:18.978Z,96.80
2018-09-15T00:56:48.444Z,97.10
2018-09-15T00:59:18.079Z,97.00
2018-09-15T01:01:48.094Z,97.20
2018-09-15T01:04:21.308Z,97.40
2018-09-15T01:06:51.542Z,97.60
2018-09-15T01:09:21.961Z,97.60
2018-09-15T01:11:52.437Z,97.90
2018-09-15T01:14:22.287Z,98.00
2018-09-15T01:16:51.962Z,97.90
2018-09-15T01:19:22.444Z,97.80
2018-09-15T01:21:54.271Z,97.80
2018-09-15T01:24:27.476Z,97.80
2018-09-15T01:27:07.147Z,98.30
2018-09-15T01:29:37.623Z,98.20
2018-09-15T01:32:06.959Z,98.60
2018-09-15T01:34:43.550Z,99.20
2018-09-15T01:37:25.036Z,99.00
2018-09-15T01:39:58.959Z,99.40
2018-09-15T01:42:28.517Z,99.50
2018-09-15T01:44:59.928Z,99.70
2018-09-15T01:47:31.812Z,99.80
2018-09-15T01:50:01.473Z,99.80
2018-09-15T01:52:32.642Z,99.90
2018-09-15T01:55:02.721Z,99.90
2018-09-15T01:57:35.427Z,99.90
2018-09-15T02:00:04.884Z,99.90
2018-09-15T02:02:35.157Z,99.90
2018-09-15T02:05:05.490Z,99.90
2018-09-15T02:07:40.904Z,99.90
2018-09-15T02:10:12.010Z,99.90
2018-09-15T02:12:42.517Z,99.90
2018-09-15T02:15:12.060Z,99.90
2018-09-15T02:17:50.184Z,99.90
2018-09-15T02:20:19.898Z,99.90
2018-09-15T02:23:04.348Z,99.90
2018-09-15T02:25:34.069Z,99.90
2018-09-15T02:28:03.937Z,99.90
2018-09-15T02:30:33.701Z,99.90
2018-09-15T02:33:15.864Z,99.90
2018-09-15T02:35:47.303Z,99.90
2018-09-15T02:38:17.058Z,99.90
2018-09-15T02:40:50.146Z,99.90
2018-09-15T02:43:30.606Z,99.90
2018-09-15T02:46:11.284Z,99.90
2018-09-15T02:48:40.886Z,99.90
2018-09-15T02:51:14.707Z,99.90
2018-09-15T02:53:44.911Z,99.90
2018-09-15T02:56:14.510Z,99.90
2018-09-15T02:58:44.323Z,99.90
2018-09-15T03:01:15.406Z,99.90
2018-09-15T03:03:45.485Z,99.90
2018-09-15T03:06:18.519Z,99.90
2018-09-15T03:08:58.398Z,99.90
2018-09-15T03:11:28.235Z,99.90
2018-09-15T03:13:57.762Z,99.90
2018-09-15T03:16:27.201Z,99.90
2018-09-15T03:18:56.903Z,99.90
2018-09-15T03:21:27.380Z,99.90
2018-09-15T03:23:57.967Z,99.90
2018-09-15T03:26:30.102Z,99.90
2018-09-15T03:29:01.161Z,99.90
2018-09-15T03:31:32.296Z,99.90
2018-09-15T03:34:02.316Z,99.90
2018-09-15T03:36:31.605Z,99.90
2018-09-15T03:39:01.814Z,99.90
2018-09-15T03:41:31.306Z,99.90
2018-09-15T03:44:01.399Z,99.90
2018-09-15T03:46:30.667Z,99.90
2018-09-15T03:48:59.892Z,99.90
2018-09-15T03:51:29.348Z,99.90
2018-09-15T03:53:59.736Z,99.90
2018-09-15T03:56:29.383Z,99.90
2018-09-15T03:58:59.234Z,99.90
2018-09-15T04:01:28.654Z,99.90
2018-09-15T04:03:58.130Z,99.90
2018-09-15T04:06:27.789Z,99.90
2018-09-15T04:08:57.377Z,99.90
2018-09-15T04:11:26.563Z,99.90
2018-09-15T04:13:57.363Z,99.90
2018-09-15T04:16:27.238Z,99.90
2018-09-15T04:18:56.497Z,99.90
2018-09-15T04:21:26.193Z,99.90
2018-09-15T04:23:55.303Z,99.90
2018-09-15T04:26:24.721Z,99.90
2018-09-15T04:28:54.409Z,99.90
2018-09-15T04:31:23.718Z,99.90
2018-09-15T04:33:55.581Z,99.90
2018-09-15T04:36:24.873Z,99.90
2018-09-15T04:38:54.658Z,99.90
2018-09-15T04:41:23.882Z,99.90
2018-09-15T04:43:53.083Z,99.90
2018-09-15T04:46:22.301Z,99.90
2018-09-15T04:48:51.809Z,99.90
2018-09-15T04:51:22.353Z,99.90
2018-09-15T04:53:51.764Z,99.90
2018-09-15T04:56:20.912Z,99.90
2018-09-15T04:58:50.712Z,99.90
2018-09-15T05:01:19.733Z,99.90
2018-09-15T05:03:48.849Z,99.90
2018-09-15T05:06:18.266Z,99.90
2018-09-15T05:08:48.269Z,99.90
2018-09-15T05:11:17.881Z,99.90
2018-09-15T05:13:47.578Z,99.90
2018-09-15T05:16:17.185Z,99.90
2018-09-15T05:18:47.094Z,99.90
2018-09-15T05:21:16.390Z,99.90
2018-09-15T05:23:45.735Z,99.90
2018-09-15T05:26:14.911Z,99.90
2018-09-15T05:28:44.654Z,99.90
2018-09-15T05:31:15.274Z,99.90
2018-09-15T05:33:53.674Z,99.90
2018-09-15T05:36:23.092Z,99.90
2018-09-15T05:38:52.442Z,99.90
2018-09-15T05:41:23.182Z,99.90
2018-09-15T05:43:57.006Z,99.90
2018-09-15T05:46:27.115Z,99.90
2018-09-15T05:48:56.248Z,99.90
2018-09-15T05:51:26.075Z,99.90
2018-09-15T05:53:56.022Z,99.90
2018-09-15T05:56:25.601Z,99.90
2018-09-15T05:58:55.336Z,99.90
2018-09-15T06:01:26.878Z,99.90
2018-09-15T06:03:56.948Z,99.90
2018-09-15T06:06:26.782Z,99.90
2018-09-15T06:08:56.235Z,99.90
2018-09-15T06:11:25.575Z,99.90
2018-09-15T06:13:56.269Z,99.90
2018-09-15T06:16:25.791Z,99.90
2018-09-15T06:18:55.126Z,99.90
2018-09-15T06:21:24.702Z,99.90
2018-09-15T06:23:54.293Z,99.90
2018-09-15T06:26:24.957Z,99.90
2018-09-15T06:28:54.722Z,99.90
2018-09-15T06:31:24.927Z,99.90
2018-09-15T06:33:54.652Z,99.90
2018-09-15T06:36:24.530Z,99.90
2018-09-15T06:38:56.129Z,99.90
2018-09-15T06:41:25.746Z,99.90
2018-09-15T06:43:55.507Z,99.90
2018-09-15T06:46:25.168Z,99.90
2018-09-15T06:48:55.923Z,99.90
2018-09-15T06:51:27.537Z,99.90
2018-09-15T06:54:00.821Z,99.90
2018-09-15T06:56:31.349Z,99.90
2018-09-15T06:59:03.786Z,99.90
2018-09-15T07:01:33.676Z,99.90
2018-09-15T07:04:03.361Z,99.90
2018-09-15T07:06:34.760Z,99.90
2018-09-15T07:09:06.438Z,99.90
2018-09-15T07:11:38.853Z,99.90
2018-09-15T07:15:12.239Z,99.90
2018-09-15T07:17:41.894Z,99.90
2018-09-15T07:20:11.454Z,99.90
2018-09-15T07:22:41.668Z,99.90
2018-09-15T07:25:14.176Z,99.90
2018-09-15T07:27:44.132Z,99.90
2018-09-15T07:30:13.564Z,99.90
2018-09-15T07:32:45.554Z,99.90
2018-09-15T07:35:16.258Z,99.90
2018-09-15T07:37:46.564Z,99.90
2018-09-15T07:40:47.976Z,99.90
2018-09-15T07:43:20.641Z,99.90
2018-09-15T07:45:52.364Z,99.90
2018-09-15T07:48:31.059Z,99.90
2018-09-15T07:51:01.487Z,99.90
2018-09-15T07:53:31.283Z,99.90
2018-09-15T07:56:02.333Z,99.90
2018-09-15T07:58:35.303Z,99.90
2018-09-15T08:01:11.145Z,99.90
2018-09-15T08:03:47.943Z,99.90
2018-09-15T08:06:19.630Z,99.90
2018-09-15T08:08:50.212Z,99.90
2018-09-15T08:11:29.341Z,99.90
2018-09-15T08:14:12.954Z,99.90
2018-09-15T08:16:54.344Z,99.90
2018-09-15T08:19:24.154Z,99.90
2018-09-15T08:21:54.644Z,99.90
2018-09-15T08:24:31.906Z,99.90
2018-09-15T08:27:02.491Z,99.90
2018-09-15T08:29:32.136Z,99.90
2018-09-15T08:32:04.299Z,99.90
2018-09-15T08:34:36.526Z,99.90
2018-09-15T08:37:07.162Z,99.90
2018-09-15T08:39:41.330Z,99.90
2018-09-15T08:42:15.365Z,99.90
2018-09-15T08:44:49.525Z,99.90
2018-09-15T08:47:20.231Z,99.90
2018-09-15T08:49:54.286Z,99.90
2018-09-15T08:52:24.293Z,99.90
2018-09-15T08:54:58.813Z,99.50
2018-09-15T08:57:28.521Z,96.90
2018-09-15T09:00:04.947Z,94.50
2018-09-15T09:02:36.708Z,91.90
2018-09-15T09:05:11.517Z,89.60
2018-09-15T09:07:42.229Z,87.30
2018-09-15T09:10:13.009Z,84.60
2018-09-15T09:12:43.169Z,79.50
2018-09-15T09:15:13.651Z,81.00
2018-09-15T09:17:52.094Z,87.20
2018-09-15T09:20:24.793Z,90.00
2018-09-15T09:22:56.421Z,90.20
2018-09-15T09:25:25.890Z,91.80
2018-09-15T09:28:08.245Z,94.10
2018-09-15T09:30:37.669Z,94.80
2018-09-15T09:33:12.011Z,93.70
2018-09-15T09:35:50.427Z,94.40
2018-09-15T09:38:23.727Z,95.60
2018-09-15T09:40:53.106Z,94.10
2018-09-15T09:43:24.065Z,87.30
2018-09-15T09:45:54.499Z,83.40
2018-09-15T09:48:26.979Z,88.10
2018-09-15T09:51:07.020Z,92.10
2018-09-15T09:53:40.326Z,94.20
2018-09-15T09:56:14.963Z,94.90
2018-09-15T09:58:48.257Z,93.40
2018-09-15T10:01:28.710Z,92.70
2018-09-15T10:04:01.898Z,93.70
2018-09-15T10:06:34.891Z,91.30
2018-09-15T10:09:12.389Z,91.20
2018-09-15T10:11:47.524Z,90.80
2018-09-15T10:14:26.352Z,91.00
2018-09-15T10:17:00.062Z,90.90
2018-09-15T10:19:31.733Z,88.20
2018-09-15T10:22:02.264Z,78.10
2018-09-15T10:24:34.006Z,77.80
2018-09-15T10:27:09.806Z,80.40
2018-09-15T10:29:44.777Z,83.50
2018-09-15T10:32:19.555Z,84.60
2018-09-15T10:37:49.233Z,91.70
2018-09-15T10:40:23.401Z,92.80
2018-09-15T10:42:59.628Z,93.40
2018-09-15T10:45:30.220Z,93.90
2018-09-15T10:48:07.612Z,93.70
2018-09-15T10:50:41.509Z,93.30
2018-09-15T10:53:14.360Z,86.70
2018-09-15T10:55:45.777Z,78.40
2018-09-15T10:58:19.939Z,66.40
2018-09-15T11:00:52.433Z,62.30
2018-09-15T11:03:24.915Z,62.20
2018-09-15T11:06:06.159Z,63.70
2018-09-15T11:08:37.607Z,67.50
2018-09-15T11:14:23.525Z,67.30
2018-09-15T11:23:15.742Z,61.70
2018-09-15T11:25:53.560Z,58.30
2018-09-15T11:28:25.214Z,54.70
2018-09-15T11:31:00.528Z,50.60
2018-09-15T11:33:34.785Z,49.90
2018-09-15T11:36:13.807Z,48.90
2018-09-15T11:39:01.072Z,50.70
2018-09-15T11:41:36.503Z,50.20
2018-09-15T11:44:08.557Z,52.30
2018-09-15T11:46:42.574Z,54.60
2018-09-15T11:49:22.193Z,54.50
2018-09-15T11:54:41.673Z,51.60
2018-09-15T11:57:15.524Z,51.80
2018-09-15T11:59:48.089Z,52.40
2018-09-15T12:02:23.033Z,50.00
2018-09-15T12:05:00.356Z,48.10
2018-09-15T12:07:31.106Z,46.50
2018-09-15T12:10:03.635Z,45.80
2018-09-15T12:12:41.985Z,44.80
2018-09-15T12:15:12.873Z,43.30
2018-09-15T12:17:48.289Z,41.80
2018-09-15T12:20:26.816Z,41.80
2018-09-15T12:22:57.535Z,42.50
2018-09-15T12:25:29.169Z,43.00
2018-09-15T12:28:00.466Z,42.70
2018-09-15T12:30:31.080Z,41.00
2018-09-15T12:33:04.121Z,38.70
2018-09-15T12:35:36.581Z,38.80
2018-09-15T12:38:10.968Z,39.40
2018-09-15T12:40:43.473Z,39.20
2018-09-15T12:43:18.507Z,37.80
2018-09-15T12:45:49.850Z,38.20
2018-09-15T12:48:24.743Z,39.60
2018-09-15T12:50:55.304Z,41.20
2018-09-15T12:53:37.346Z,43.10
2018-09-15T12:56:20.355Z,45.60
2018-09-15T13:01:38.685Z,44.50
2018-09-15T13:04:10.521Z,43.80
2018-09-15T13:06:43.100Z,44.00
2018-09-15T13:09:15.954Z,45.10
2018-09-15T13:14:33.314Z,47.40
2018-09-15T13:17:07.578Z,48.10
2018-09-15T13:19:44.719Z,46.70
2018-09-15T13:22:19.392Z,44.30
2018-09-15T13:24:50.185Z,44.40
2018-09-15T13:27:30.792Z,46.50
2018-09-15T13:30:01.813Z,47.50
2018-09-15T13:32:45.381Z,48.50
2018-09-15T13:35:16.791Z,48.70
2018-09-15T13:37:54.917Z,48.00
2018-09-15T13:40:26.780Z,46.70
2018-09-15T13:42:57.260Z,44.00
2018-09-15T13:45:41.383Z,41.60
2018-09-15T13:48:15.280Z,40.90
2018-09-15T13:50:57.440Z,42.00
2018-09-15T14:00:50.638Z,38.70
2018-09-15T14:03:37.568Z,40.00
2018-09-15T14:06:20.464Z,41.80
2018-09-15T14:08:52.062Z,42.80
2018-09-15T14:11:22.251Z,44.30
2018-09-15T14:13:53.624Z,45.50
2018-09-15T14:16:24.430Z,44.80
2018-09-15T14:18:55.377Z,44.20
2018-09-15T14:21:25.701Z,44.20
2018-09-15T14:23:59.151Z,44.90
2018-09-15T14:26:29.881Z,45.00
2018-09-15T14:29:00.360Z,45.10
2018-09-15T14:31:32.937Z,45.30
2018-09-15T14:34:06.100Z,46.10
2018-09-15T14:36:38.420Z,47.40
2018-09-15T14:39:12.408Z,48.40
2018-09-15T14:41:46.744Z,49.10
2018-09-15T14:44:21.164Z,49.10
2018-09-15T14:46:55.796Z,48.10
2018-09-15T14:49:26.520Z,49.10
2018-09-15T14:51:56.662Z,48.90
2018-09-15T14:54:37.455Z,48.90
2018-09-15T14:57:21.862Z,48.60
2018-09-15T14:59:58.259Z,48.30
2018-09-15T15:02:30.335Z,48.80
2018-09-15T15:05:00.285Z,49.80
2018-09-15T15:07:31.682Z,50.90
2018-09-15T15:10:01.464Z,51.60
2018-09-15T15:12:34.484Z,52.10
2018-09-15T15:15:05.340Z,52.20
2018-09-15T15:17:35.215Z,52.60
2018-09-15T15:20:05.073Z,52.80
2018-09-15T15:22:37.738Z,52.40
2018-09-15T15:25:09.408Z,52.50
2018-09-15T15:27:57.233Z,53.10
2018-09-15T15:30:30.149Z,53.40
2018-09-15T15:33:01.249Z,53.60
2018-09-15T15:35:41.591Z,54.30
2018-09-15T15:38:19.808Z,54.10
2018-09-15T15:40:55.551Z,53.80
2018-09-15T15:43:30.125Z,53.10
2018-09-15T15:46:04.607Z,53.10
2018-09-15T15:48:42.915Z,52.80
2018-09-15T15:51:18.335Z,52.10
2018-09-15T15:54:04.114Z,52.10
2018-09-15T15:57:30.238Z,53.10
2018-09-15T16:00:27.691Z,53.00
2018-09-15T16:05:44.272Z,54.10
2018-09-15T16:08:18.487Z,53.00
2018-09-15T16:10:59.893Z,53.30
2018-09-15T16:13:56.048Z,53.40
2018-09-15T16:20:04.164Z,54.30
2018-09-15T16:23:10.348Z,55.00
2018-09-15T16:35:23.853Z,55.40
2018-09-15T16:45:24.617Z,58.50
2018-09-15T16:47:57.597Z,59.30
2018-09-15T16:50:36.720Z,60.50
2018-09-15T16:53:21.625Z,60.40
2018-09-15T16:55:57.669Z,61.40
2018-09-15T16:58:31.110Z,62.30
2018-09-15T17:01:28.706Z,62.50
2018-09-15T17:04:16.335Z,64.70
2018-09-15T17:06:56.004Z,64.70
2018-09-15T17:09:27.646Z,65.20
2018-09-15T17:12:03.527Z,66.00
2018-09-15T17:14:40.846Z,67.20
2018-09-15T17:17:29.467Z,67.40
2018-09-15T17:20:10.455Z,68.00
2018-09-15T17:23:30.605Z,69.00
2018-09-15T17:26:10.922Z,70.10
2018-09-15T17:29:00.981Z,69.60
2018-09-15T17:31:41.594Z,70.30
2018-09-15T17:34:33.663Z,70.10
2018-09-15T17:37:08.214Z,70.60
2018-09-15T17:40:25.936Z,71.20
2018-09-15T17:43:05.853Z,71.40
2018-09-15T17:49:09.198Z,72.50
2018-09-15T17:51:51.422Z,73.50
2018-09-15T17:54:34.853Z,73.40
2018-09-15T17:57:26.928Z,73.50
2018-09-15T18:03:01.942Z,73.90
2018-09-15T18:11:15.292Z,75.50
2018-09-15T18:19:53.621Z,76.50
2018-09-15T18:23:04.160Z,77.70
2018-09-15T18:25:34.708Z,77.70
2018-09-15T18:28:29.728Z,77.50
2018-09-15T18:31:27.615Z,77.90
2018-09-15T18:35:04.604Z,79.00
2018-09-15T18:43:44.805Z,80.20
2018-09-15T18:53:12.374Z,81.40
2018-09-15T18:56:06.399Z,81.30
2018-09-15T18:58:40.827Z,82.30
2018-09-15T19:01:34.090Z,82.70
2018-09-15T19:04:20.560Z,83.70
2018-09-15T19:07:11.416Z,83.90
2018-09-15T19:09:55.283Z,84.30
2018-09-15T19:12:47.658Z,84.50
2018-09-15T19:15:27.433Z,84.80
2018-09-15T19:18:12.378Z,85.50
2018-09-15T19:20:50.492Z,85.40
2018-09-15T19:23:26.555Z,85.60
2018-09-15T19:25:58.635Z,85.10
2018-09-15T19:28:30.190Z,84.00
2018-09-15T19:31:04.620Z,84.10
2018-09-15T19:33:57.903Z,83.70
2018-09-15T19:36:28.480Z,85.10
2018-09-15T19:39:05.599Z,85.70
2018-09-15T19:41:38.657Z,86.50
2018-09-15T19:44:36.356Z,88.10
2018-09-15T19:47:15.998Z,88.10
2018-09-15T19:49:57.148Z,88.60
2018-09-15T19:52:46.831Z,89.00
2018-09-15T20:01:56.217Z,89.50
2018-09-15T20:04:59.556Z,90.20
2018-09-15T20:08:34.276Z,91.00
2018-09-15T20:11:30.451Z,91.20
2018-09-15T20:14:19.858Z,91.10
2018-09-15T20:16:54.870Z,90.90
2018-09-15T20:19:29.253Z,90.80
2018-09-15T20:21:59.704Z,90.60
2018-09-15T20:24:41.032Z,90.50
2018-09-15T20:27:21.890Z,90.50
2018-09-15T20:30:02.868Z,90.60
2018-09-15T20:32:38.941Z,91.10
2018-09-15T20:35:13.931Z,91.30
2018-09-15T20:37:46.329Z,91.30
2018-09-15T20:40:19.976Z,91.60
2018-09-15T20:43:00.378Z,91.80
2018-09-15T20:45:35.513Z,91.70
2018-09-15T20:48:24.173Z,93.00
2018-09-15T20:55:14.685Z,93.30
2018-09-15T20:58:10.906Z,93.80
2018-09-15T21:00:42.448Z,94.40
2018-09-15T21:03:30.932Z,95.00
2018-09-15T21:06:09.264Z,95.30
2018-09-15T21:08:42.437Z,95.60
2018-09-15T21:14:05.923Z,95.70
2018-09-15T21:16:38.607Z,95.80
2018-09-15T21:22:09.246Z,96.70
2018-09-15T21:24:41.788Z,96.90
2018-09-15T21:27:27.814Z,96.70
2018-09-15T21:30:07.668Z,97.40
2018-09-15T21:32:40.117Z,97.90
2018-09-15T21:35:14.757Z,97.90
2018-09-15T21:43:50.236Z,98.80
2018-09-15T21:46:29.247Z,99.90
2018-09-15T21:55:35.611Z,99.90
2018-09-15T21:58:05.925Z,99.90
2018-09-15T22:00:43.970Z,99.90
2018-09-15T22:03:16.996Z,99.90
2018-09-15T22:05:50.325Z,99.90
2018-09-15T22:08:20.838Z,99.90
2018-09-15T22:10:53.335Z,99.90
2018-09-15T22:13:26.302Z,99.90
2018-09-15T22:16:01.135Z,99.90
2018-09-15T22:18:32.417Z,99.90
2018-09-15T22:21:03.946Z,99.90
2018-09-15T22:23:35.678Z,99.90
2018-09-15T22:26:21.355Z,99.90
2018-09-15T22:29:12.151Z,99.90
2018-09-15T22:31:45.894Z,99.90
2018-09-15T22:34:16.064Z,99.90
2018-09-15T22:36:49.728Z,99.90
2018-09-15T22:39:38.080Z,99.90
2018-09-15T22:42:33.185Z,99.90
2018-09-15T22:45:05.572Z,99.90
2018-09-15T22:47:56.352Z,99.90
2018-09-15T22:50:31.649Z,99.90
2018-09-15T22:53:02.331Z,99.90
2018-09-15T22:55:37.409Z,99.90
2018-09-15T22:58:07.483Z,99.90
2018-09-15T23:00:40.052Z,99.90
2018-09-15T23:03:19.554Z,99.90
2018-09-15T23:06:08.966Z,99.90
2018-09-15T23:08:47.138Z,99.90
2018-09-15T23:11:30.365Z,99.90
2018-09-15T23:14:03.398Z,99.90
2018-09-15T23:16:36.637Z,99.90
2018-09-15T23:19:25.670Z,99.90
2018-09-15T23:22:11.219Z,99.90
2018-09-15T23:24:42.379Z,99.90
2018-09-15T23:27:15.775Z,99.90
2018-09-15T23:29:46.202Z,99.90
2018-09-15T23:32:16.822Z,99.90
2018-09-15T23:35:01.172Z,99.90
2018-09-15T23:40:45.574Z,99.90
2018-09-15T23:43:43.734Z,99.90
2018-09-15T23:46:55.709Z,99.90
2018-09-15T23:49:26.206Z,99.90
2018-09-15T23:51:57.689Z,99.90
2018-09-15T23:54:28.774Z,99.90
2018-09-15T23:56:58.654Z,99.90
2018-09-15T23:59:32.173Z,99.90
